Chicago, Illinois
Current Conditions -  °F | °C
As of 8:53 AM on Saturday 25 Oct 2014 (Local Time) from KMDW Reporting Station
Haze Haze  
Wind Chill: 16°   Ceiling: Unl
Heat Index: 16°   Visibility: 6mi
Dew Point: 13°   Wind: 10mph
Humidity: 83%   Direction: 270°W
Pressure: 29.93"   Gusts: NA
Location:  41.88°N, 87.63°W
Report Text: KMDW 251353Z 27009KT 6SM HZ FEW250 16/13 A2993 RMK AO2 SLP132 T01610133
Loading
Personal Weather Stations






























Interactive Weather Map New forecast layout! Learn more

10-Day Weather Forecast

Advertisements
Track Severe Weather on mobile